createdAt,value
2022-12-12T00:02:20.615Z,41.20
2022-12-12T00:05:23.220Z,35.17
2022-12-12T00:08:27.234Z,31.47
2022-12-12T00:11:29.904Z,32.90
2022-12-12T00:14:32.500Z,38.60
2022-12-12T00:17:35.095Z,36.03
2022-12-12T00:20:37.732Z,37.00
2022-12-12T00:23:41.945Z,34.10
2022-12-12T00:26:44.551Z,38.63
2022-12-12T00:29:51.924Z,31.73
2022-12-12T00:32:54.534Z,34.53
2022-12-12T00:35:57.121Z,35.83
2022-12-12T00:39:01.327Z,37.97
2022-12-12T00:42:03.990Z,34.00
2022-12-12T00:45:07.511Z,37.97
2022-12-12T00:48:10.322Z,38.27
2022-12-12T00:51:17.445Z,37.73
2022-12-12T00:54:21.412Z,39.30
2022-12-12T00:57:23.983Z,33.07
2022-12-12T01:00:26.701Z,37.63
2022-12-12T01:03:29.315Z,37.50
2022-12-12T01:06:32.405Z,39.33
2022-12-12T01:09:36.356Z,33.13
2022-12-12T01:12:38.952Z,34.40
2022-12-12T01:15:41.600Z,37.77
2022-12-12T01:18:44.537Z,39.67
2022-12-12T01:21:47.127Z,36.60
2022-12-12T01:24:51.055Z,43.13
2022-12-12T01:27:53.676Z,31.97
2022-12-12T01:30:56.463Z,33.23
2022-12-12T01:33:59.124Z,35.27
2022-12-12T01:37:01.705Z,32.83
2022-12-12T01:40:08.671Z,30.53
2022-12-12T01:43:12.964Z,28.10
2022-12-12T01:46:35.415Z,30.10
2022-12-12T01:49:38.206Z,33.83
2022-12-12T01:52:45.037Z,35.87
2022-12-12T01:55:50.563Z,32.07
2022-12-12T01:58:56.468Z,35.60
2022-12-12T02:01:59.143Z,35.03
2022-12-12T02:05:06.833Z,34.80
2022-12-12T02:08:12.868Z,34.90
2022-12-12T02:11:16.852Z,31.93
2022-12-12T02:14:23.217Z,33.23
2022-12-12T02:17:43.120Z,31.37
2022-12-12T02:21:05.881Z,30.57
2022-12-12T02:24:47.975Z,32.17
2022-12-12T02:28:17.187Z,32.27
2022-12-12T02:31:25.874Z,34.60
2022-12-12T02:34:35.521Z,33.57
2022-12-12T02:37:46.908Z,39.23
2022-12-12T02:40:58.819Z,39.50
2022-12-12T02:44:12.369Z,32.63
2022-12-12T02:47:21.829Z,31.83
2022-12-12T02:50:27.330Z,33.80
2022-12-12T02:53:30.057Z,35.93
2022-12-12T02:56:45.920Z,32.47
2022-12-12T02:59:53.377Z,31.93
2022-12-12T03:03:46.937Z,33.47
2022-12-12T03:07:18.821Z,35.53
2022-12-12T03:10:36.455Z,31.90
2022-12-12T03:13:46.785Z,33.07
2022-12-12T03:16:56.520Z,29.47
2022-12-12T03:20:07.715Z,30.80
2022-12-12T03:23:15.468Z,38.00
2022-12-12T03:26:22.284Z,33.40
2022-12-12T03:29:30.148Z,35.23
2022-12-12T03:32:39.501Z,31.93
2022-12-12T03:35:48.390Z,32.00
2022-12-12T03:38:57.230Z,34.83
2022-12-12T03:42:06.915Z,33.90
2022-12-12T03:45:15.347Z,35.87
2022-12-12T03:48:23.015Z,33.33
2022-12-12T03:51:30.099Z,39.03
2022-12-12T03:54:36.410Z,30.40
2022-12-12T03:57:44.692Z,37.37
2022-12-12T04:00:50.655Z,34.03
2022-12-12T04:04:01.035Z,35.17
2022-12-12T04:07:12.403Z,33.00
2022-12-12T04:10:32.385Z,33.20
2022-12-12T04:13:42.948Z,32.47
2022-12-12T04:16:47.352Z,33.17
2022-12-12T04:20:14.635Z,34.40
2022-12-12T04:23:38.191Z,33.53
2022-12-12T04:26:46.065Z,34.23
2022-12-12T04:29:54.707Z,31.63
2022-12-12T04:33:03.287Z,36.17
2022-12-12T04:36:09.561Z,34.23
2022-12-12T04:39:16.182Z,37.03
2022-12-12T04:42:23.752Z,36.00
2022-12-12T04:45:34.270Z,29.73
2022-12-12T04:48:43.757Z,39.20
2022-12-12T04:51:51.159Z,34.70
2022-12-12T04:55:02.987Z,36.40
2022-12-12T04:58:08.202Z,33.13
2022-12-12T05:01:16.900Z,33.33
2022-12-12T05:04:25.051Z,35.23
2022-12-12T05:07:39.527Z,32.23
2022-12-12T05:10:45.928Z,31.87
2022-12-12T05:13:49.843Z,34.43
2022-12-12T05:16:56.258Z,33.37
2022-12-12T05:19:59.708Z,35.40
2022-12-12T05:23:02.333Z,40.37
2022-12-12T05:26:09.373Z,37.47
2022-12-12T05:29:12.004Z,35.00
2022-12-12T05:32:14.586Z,36.93
2022-12-12T05:35:17.437Z,35.80
2022-12-12T05:38:20.034Z,34.87
2022-12-12T05:41:24.201Z,37.40
2022-12-12T05:44:26.861Z,39.50
2022-12-12T05:47:29.438Z,35.93
2022-12-12T05:50:32.016Z,36.57
2022-12-12T05:53:42.201Z,36.73
2022-12-12T05:56:47.059Z,36.70
2022-12-12T05:59:49.819Z,36.73
2022-12-12T06:02:52.535Z,35.50
2022-12-12T06:05:55.187Z,38.43
2022-12-12T06:08:57.901Z,41.00
2022-12-12T06:12:01.838Z,37.43
2022-12-12T06:15:04.863Z,38.83
2022-12-12T06:18:07.495Z,36.23
2022-12-12T06:21:12.198Z,46.27
2022-12-12T06:24:14.807Z,42.17
2022-12-12T06:27:18.799Z,37.97
2022-12-12T06:30:21.554Z,37.70
2022-12-12T06:33:24.469Z,39.43
2022-12-12T06:36:27.110Z,38.37
2022-12-12T06:39:29.721Z,37.70
2022-12-12T06:42:33.642Z,42.57
2022-12-12T06:45:36.228Z,38.13
2022-12-12T06:48:38.814Z,42.70
2022-12-12T06:51:44.254Z,37.43
2022-12-12T06:54:47.336Z,40.20
2022-12-12T06:57:51.340Z,39.20
2022-12-12T07:00:54.970Z,39.73
2022-12-12T07:03:58.185Z,46.33
2022-12-12T07:07:00.793Z,43.10
2022-12-12T07:10:03.380Z,35.67
2022-12-12T07:13:07.450Z,39.27
2022-12-12T07:16:10.137Z,37.77
2022-12-12T07:19:12.817Z,38.27
2022-12-12T07:22:15.396Z,38.70
2022-12-12T07:25:18.148Z,38.23
2022-12-12T07:28:22.157Z,41.40
2022-12-12T07:31:26.419Z,42.73
2022-12-12T07:34:30.127Z,39.97
2022-12-12T07:37:32.753Z,40.93
2022-12-12T07:40:35.352Z,34.43
2022-12-12T07:43:43.797Z,41.13
2022-12-12T07:46:47.381Z,40.60
2022-12-12T07:49:49.967Z,43.00
2022-12-12T07:52:52.763Z,35.90
2022-12-12T07:55:56.389Z,42.07
2022-12-12T07:59:00.399Z,40.70
2022-12-12T08:02:03.050Z,36.47
2022-12-12T08:05:06.504Z,37.83
2022-12-12T08:08:09.321Z,42.23
2022-12-12T08:11:13.726Z,44.23
2022-12-12T08:14:18.324Z,38.63
2022-12-12T08:17:20.919Z,43.10
2022-12-12T08:20:23.816Z,44.73
2022-12-12T08:23:26.380Z,42.33
2022-12-12T08:26:30.109Z,41.10
2022-12-12T08:29:34.056Z,40.77
2022-12-12T08:32:36.957Z,46.93
2022-12-12T08:35:39.547Z,41.57
2022-12-12T08:38:42.316Z,39.90
2022-12-12T08:41:48.964Z,38.87
2022-12-12T08:44:52.951Z,45.23
2022-12-12T08:47:55.531Z,41.33
2022-12-12T08:50:58.619Z,45.37
2022-12-12T08:54:01.531Z,45.37
2022-12-12T08:57:04.445Z,40.57
2022-12-12T09:00:10.607Z,41.77
2022-12-12T09:03:13.455Z,43.93
2022-12-12T09:06:17.149Z,44.63
2022-12-12T09:09:19.769Z,41.47
2022-12-12T09:12:22.375Z,40.93
2022-12-12T09:15:26.297Z,48.97
2022-12-12T09:18:29.005Z,44.60
2022-12-12T09:21:31.567Z,44.33
2022-12-12T09:24:34.163Z,42.03
2022-12-12T09:27:37.025Z,53.83
2022-12-12T09:30:42.341Z,43.00
2022-12-12T09:33:45.020Z,41.13
2022-12-12T09:36:47.644Z,41.90
2022-12-12T09:39:52.311Z,46.47
2022-12-12T09:42:55.132Z,46.70
2022-12-12T09:46:01.059Z,44.70
2022-12-12T09:49:12.111Z,46.93
2022-12-12T09:52:16.749Z,47.97
2022-12-12T09:55:38.621Z,39.27
2022-12-12T09:58:52.506Z,42.03
2022-12-12T10:02:06.438Z,43.70
2022-12-12T10:05:20.539Z,44.43
2022-12-12T10:08:29.687Z,47.60
2022-12-12T10:11:54.793Z,41.23
2022-12-12T10:15:01.862Z,40.47
2022-12-12T10:18:13.443Z,44.23
2022-12-12T10:21:21.072Z,45.57
2022-12-12T10:24:31.525Z,42.33
2022-12-12T10:27:34.188Z,42.33
2022-12-12T10:30:44.824Z,40.43
2022-12-12T10:34:06.565Z,42.73
2022-12-12T10:37:22.877Z,45.23
2022-12-12T10:40:38.814Z,38.70
2022-12-12T10:43:47.118Z,34.83
2022-12-12T10:46:56.875Z,37.83
2022-12-12T10:50:14.440Z,34.80
2022-12-12T10:53:17.080Z,39.93
2022-12-12T10:56:22.138Z,36.17
2022-12-12T10:59:24.694Z,39.20
2022-12-12T11:02:31.398Z,36.50
2022-12-12T11:05:37.765Z,38.40
2022-12-12T11:08:52.425Z,38.03
2022-12-12T11:12:00.165Z,40.33
2022-12-12T11:15:07.478Z,36.97
2022-12-12T11:18:15.575Z,40.17
2022-12-12T11:21:21.458Z,36.43
2022-12-12T11:24:30.576Z,40.03
2022-12-12T11:27:35.485Z,40.90
2022-12-12T11:30:40.532Z,40.13
2022-12-12T11:33:49.768Z,43.90
2022-12-12T11:36:54.915Z,40.10
2022-12-12T11:39:58.385Z,39.60
2022-12-12T11:43:19.972Z,36.83
2022-12-12T11:46:25.939Z,38.20
2022-12-12T11:49:28.532Z,36.70
2022-12-12T11:52:34.045Z,36.23
2022-12-12T11:55:45.469Z,40.67
2022-12-12T11:58:56.318Z,45.40
2022-12-12T12:02:12.074Z,40.87
2022-12-12T12:05:26.130Z,43.73
2022-12-12T12:08:42.791Z,38.63
2022-12-12T12:11:55.713Z,38.77
2022-12-12T12:15:23.313Z,37.67
2022-12-12T12:18:49.146Z,40.20
2022-12-12T12:22:02.819Z,38.77
2022-12-12T12:25:24.412Z,37.03
2022-12-12T12:29:03.139Z,35.47
2022-12-12T12:32:17.840Z,39.33
2022-12-12T12:35:29.832Z,39.27
2022-12-12T12:38:49.564Z,41.20
2022-12-12T12:42:06.342Z,38.57
2022-12-12T12:45:19.215Z,39.40
2022-12-12T12:48:25.488Z,37.93
2022-12-12T12:51:34.761Z,43.23
2022-12-12T12:54:40.736Z,39.83
2022-12-12T12:57:48.020Z,42.83
2022-12-12T13:00:58.787Z,37.33
2022-12-12T13:04:06.209Z,40.87
2022-12-12T13:07:14.858Z,40.40
2022-12-12T13:10:22.349Z,37.43
2022-12-12T13:13:30.525Z,38.77
2022-12-12T13:16:34.277Z,40.97
2022-12-12T13:19:40.397Z,46.67
2022-12-12T13:22:54.914Z,39.10
2022-12-12T13:26:02.094Z,38.73
2022-12-12T13:29:31.596Z,39.57
2022-12-12T13:32:53.836Z,41.10
2022-12-12T13:36:05.840Z,38.30
2022-12-12T13:39:22.189Z,37.13
2022-12-12T13:42:24.802Z,41.90
2022-12-12T13:45:38.027Z,39.67
2022-12-12T13:48:47.042Z,39.57
2022-12-12T13:51:49.943Z,37.63
2022-12-12T13:55:12.067Z,38.37
2022-12-12T13:58:21.225Z,41.03
2022-12-12T14:01:34.324Z,38.03
2022-12-12T14:04:39.485Z,41.60
2022-12-12T14:07:49.698Z,37.47
2022-12-12T14:10:56.371Z,42.10
2022-12-12T14:14:08.506Z,42.27
2022-12-12T14:17:21.737Z,39.27
2022-12-12T14:20:28.208Z,54.37
2022-12-12T14:23:32.558Z,53.33
2022-12-12T14:26:49.358Z,41.43
2022-12-12T14:29:51.962Z,41.20
2022-12-12T14:33:06.938Z,41.77
2022-12-12T14:36:26.526Z,37.90
2022-12-12T14:40:02.566Z,52.43
2022-12-12T14:43:20.626Z,42.07
2022-12-12T14:46:25.371Z,49.33
2022-12-12T14:49:29.323Z,38.53
2022-12-12T14:52:32.012Z,41.30
2022-12-12T14:55:34.622Z,45.17
2022-12-12T14:58:41.073Z,43.30
2022-12-12T15:01:45.772Z,44.60
2022-12-12T15:04:55.172Z,44.70
2022-12-12T15:08:00.392Z,42.27
2022-12-12T15:11:03.013Z,41.67
2022-12-12T15:14:05.923Z,44.67
2022-12-12T15:17:14.502Z,44.53
2022-12-12T15:20:20.760Z,40.63
2022-12-12T15:23:24.278Z,37.93
2022-12-12T15:26:29.962Z,40.17
2022-12-12T15:29:33.761Z,41.97
2022-12-12T15:32:37.081Z,40.60
2022-12-12T15:35:41.429Z,36.07
2022-12-12T15:38:44.076Z,36.30
2022-12-12T15:41:46.997Z,38.17
2022-12-12T15:44:51.390Z,42.10
2022-12-12T15:47:55.183Z,55.80
2022-12-12T15:51:03.130Z,45.57
2022-12-12T15:54:06.006Z,41.10
2022-12-12T15:57:15.925Z,45.23
2022-12-12T16:00:32.034Z,44.60
2022-12-12T16:03:35.841Z,45.57
2022-12-12T16:06:42.239Z,46.47
2022-12-12T16:09:58.804Z,49.93
2022-12-12T16:13:03.822Z,53.80
2022-12-12T16:16:34.438Z,46.33
2022-12-12T16:19:42.608Z,51.20
2022-12-12T16:22:49.519Z,48.90
2022-12-12T16:25:52.154Z,50.73
2022-12-12T16:28:54.781Z,51.47
2022-12-12T16:31:58.373Z,53.13
2022-12-12T16:35:01.027Z,55.50
2022-12-12T16:38:13.794Z,52.73
2022-12-12T16:41:18.797Z,49.33
2022-12-12T16:44:21.372Z,46.87
2022-12-12T16:47:25.468Z,43.90
2022-12-12T16:50:28.048Z,49.10
2022-12-12T16:53:32.019Z,45.87
2022-12-12T16:56:34.606Z,50.23
2022-12-12T16:59:38.271Z,47.50
2022-12-12T17:02:41.356Z,53.73
2022-12-12T17:05:46.272Z,49.27
2022-12-12T17:08:50.206Z,52.63
2022-12-12T17:11:52.819Z,48.00
2022-12-12T17:14:55.398Z,55.73
2022-12-12T17:17:58.911Z,55.00
2022-12-12T17:21:01.522Z,50.83
2022-12-12T17:24:05.957Z,56.23
2022-12-12T17:27:08.527Z,52.47
2022-12-12T17:30:13.644Z,54.63
2022-12-12T17:33:17.246Z,56.97
2022-12-12T17:36:20.194Z,50.63
2022-12-12T17:39:24.139Z,51.43
2022-12-12T17:42:26.773Z,47.47
2022-12-12T17:45:29.423Z,50.03
2022-12-12T17:48:33.964Z,52.37
2022-12-12T17:51:37.451Z,50.87
2022-12-12T17:54:41.707Z,46.60
2022-12-12T17:57:44.267Z,53.63
2022-12-12T18:00:46.928Z,50.73
2022-12-12T18:03:50.489Z,49.53
2022-12-12T18:06:53.180Z,54.27
2022-12-12T18:09:57.178Z,51.70
2022-12-12T18:12:59.807Z,68.97
2022-12-12T18:16:02.541Z,90.07
2022-12-12T18:19:05.377Z,61.87
2022-12-12T18:22:07.980Z,59.83
2022-12-12T18:25:12.093Z,61.07
2022-12-12T18:28:14.954Z,56.93
2022-12-12T18:31:17.711Z,60.47
2022-12-12T18:34:20.674Z,65.90
2022-12-12T18:37:23.368Z,132.30
2022-12-12T18:40:27.951Z,55.20
2022-12-12T18:43:31.521Z,54.10
2022-12-12T18:46:42.004Z,57.93
2022-12-12T18:49:45.776Z,53.47
2022-12-12T18:52:48.484Z,59.77
2022-12-12T18:55:52.469Z,53.57
2022-12-12T18:58:55.617Z,48.60
2022-12-12T19:01:58.271Z,52.40
2022-12-12T19:05:01.072Z,49.00
2022-12-12T19:08:03.917Z,48.03
2022-12-12T19:11:09.180Z,57.07
2022-12-12T19:14:13.643Z,50.43
2022-12-12T19:17:18.421Z,48.10
2022-12-12T19:20:25.842Z,56.10
2022-12-12T19:23:28.479Z,56.80
2022-12-12T19:26:32.490Z,58.23
2022-12-12T19:29:35.130Z,57.67
2022-12-12T19:32:37.716Z,61.63
2022-12-12T19:35:40.349Z,59.17
2022-12-12T19:38:43.273Z,57.37
2022-12-12T19:41:47.226Z,61.80
2022-12-12T19:44:49.957Z,61.50
2022-12-12T19:47:52.549Z,52.10
2022-12-12T19:50:55.356Z,62.30
2022-12-12T19:54:00.409Z,66.00
2022-12-12T19:57:04.391Z,61.80
2022-12-12T20:00:09.521Z,58.07
2022-12-12T20:03:12.115Z,57.93
2022-12-12T20:06:14.742Z,53.43
2022-12-12T20:09:19.855Z,60.73
2022-12-12T20:12:23.796Z,54.73
2022-12-12T20:15:26.501Z,56.90
2022-12-12T20:18:29.084Z,53.73
2022-12-12T20:24:54.331Z,51.90
2022-12-12T20:27:58.304Z,50.30
2022-12-12T20:31:05.746Z,50.37
2022-12-12T20:34:08.432Z,51.77
2022-12-12T20:37:14.147Z,49.03
2022-12-12T20:40:21.018Z,53.50
2022-12-12T20:43:25.137Z,50.33
2022-12-12T20:46:30.604Z,50.20
2022-12-12T20:49:33.337Z,53.60
2022-12-12T20:52:35.978Z,57.17
2022-12-12T20:55:38.632Z,56.30
2022-12-12T20:58:43.005Z,66.77
2022-12-12T21:01:46.937Z,65.77
2022-12-12T21:04:50.429Z,70.03
2022-12-12T21:07:53.086Z,79.17
2022-12-12T21:10:55.729Z,81.27
2022-12-12T21:14:02.866Z,86.17
2022-12-12T21:17:05.854Z,103.70
2022-12-12T21:20:09.757Z,117.53
2022-12-12T21:23:12.364Z,112.47
2022-12-12T21:26:21.519Z,130.63
2022-12-12T21:29:27.817Z,127.17
2022-12-12T21:32:30.446Z,125.77
2022-12-12T21:35:34.910Z,98.10
2022-12-12T21:38:38.610Z,104.40
2022-12-12T21:41:43.631Z,111.60
2022-12-12T21:44:47.622Z,114.83
2022-12-12T21:47:50.225Z,118.33
2022-12-12T21:50:52.801Z,112.03
2022-12-12T21:53:55.374Z,100.97
2022-12-12T21:56:58.865Z,108.50
2022-12-12T22:00:03.019Z,117.63
2022-12-12T22:03:05.619Z,115.27
2022-12-12T22:06:12.310Z,94.63
2022-12-12T22:09:15.006Z,86.80
2022-12-12T22:12:18.699Z,82.30
2022-12-12T22:15:23.234Z,82.67
2022-12-12T22:18:25.808Z,77.87
2022-12-12T22:21:28.536Z,76.70
2022-12-12T22:24:31.285Z,74.67
2022-12-12T22:27:34.495Z,72.03
2022-12-12T22:30:38.503Z,75.80
2022-12-12T22:33:41.121Z,77.47
2022-12-12T22:36:45.105Z,80.17
2022-12-12T22:39:47.684Z,111.23
2022-12-12T22:42:50.262Z,115.93
2022-12-12T22:45:54.317Z,105.97
2022-12-12T22:49:00.002Z,97.63
2022-12-12T22:52:02.616Z,77.60
2022-12-12T22:55:05.911Z,62.97
2022-12-12T22:58:08.695Z,62.47
2022-12-12T23:01:14.566Z,56.23
2022-12-12T23:04:17.269Z,61.73
2022-12-12T23:07:19.901Z,58.50
2022-12-12T23:10:22.828Z,59.47
2022-12-12T23:13:25.404Z,60.00
2022-12-12T23:16:30.812Z,55.13
2022-12-12T23:19:33.614Z,56.47
2022-12-12T23:22:36.270Z,64.17
2022-12-12T23:25:39.819Z,63.03
2022-12-12T23:28:43.223Z,61.77
2022-12-12T23:31:47.861Z,57.53
2022-12-12T23:34:50.654Z,58.70
2022-12-12T23:37:53.223Z,54.13
2022-12-12T23:40:55.861Z,58.23
2022-12-12T23:43:58.840Z,57.23
2022-12-12T23:47:02.800Z,56.33
2022-12-12T23:50:06.142Z,57.33
2022-12-12T23:53:10.648Z,56.17
2022-12-12T23:56:13.438Z,54.07
2022-12-12T23:59:18.193Z,59.80
